Colfax, CA (95713)

11:18 PM PST on February 26, 2017 (GMT -0800)
MCFCCA | | Change Station
Active Advisory: Hydrologic Statement

Elev 2109 ft 39.08 °N, 120.94 °W | Updated 13 minutes ago

Overcast
Overcast
40.0 °F
Feels Like 37 °F
N
4.0
Wind Variable Wind from West

Today
High -- | Low -- °F
--% Chance of Precip.
Yesterday
High -- | Low -- °F
Precip. -- in
Pressure 29.81 in
Visibility 9.0 miles
Clouds Overcast 400 ft
Windchill 37 °F
Dew Point 35 °F
Humidity 83%
Rainfall 0.03 in
Snow Depth Not available.
6:40 AM 5:53 PM
New Moon, 1% visible
METAR KGOO 270655Z AUTO 21003KT 9SM OVC004 01/00 A2981 RMK AO1
Pressure 29.81 in
Visibility 9.0 miles
Clouds Overcast 400 ft
Windchill 37 °F
Dew Point 35 °F
Humidity 83%
Rainfall 0.03 in
Snow Depth Not available.
6:40 AM 5:53 PM
New Moon, 1% visible
METAR KGOO 270655Z AUTO 21003KT 9SM OVC004 01/00 A2981 RMK AO1

Get Your Daily Forecast Email!

Thanks for signing up!

Be on the lookout for a verification email in your inbox.

You'll start receiving the daily forecast at 8 AM.

×

10-Day Weather Forecast

Almanac

Astronomy

Feb. 26, 2017 Rise Set
Actual Time
Civil Twilight
Nautical Twilight
Astronomical Twilight
Moon
Length of Visible Light
Length of Day
Tomorrow will be .
, % of the Moon is Illuminated

Today's Extremes

State Highs State Lows

Community

WunderPhotos

Upload Photos

1,962,540 photos uploaded!

WunderBlog® & News

Nearby

Air Quality

  Air Quality AQ Index Pollutant
Not available.

Snow Depth

Station Depth Elevation

Earthquake Activity

City Distance Mag. Time & Date
Minimum magnitude displayed is 2.5.

Coastal Water Temperatures

Place Temperature

Stations

Nearby Weather Stations

Station Location Temp. Windchill Dew Point Humidity Wind Precip. Elev Updated Type
                   

Watches & Warnings

Hydrologic Statement
Issued: 12:59 PM PST Feb. 26, 2017 – National Weather Service

Forecast information for
feather river near Nicolaus.
* At 12:15 PM Sunday the stage was 40.9 feet.
* Forecast to fluctuate near 40.5 ft thru near tomorrow noon.
* Flood stage 47.0 ft
* monitor stage 39.0 ft


&&

Lat... Lon 3897 12165 3903 12149 3884 12150 3876 12168